Ana Sayfa
METAR-TAF:

METAR-TAF

Havaalanları :

Maiduguri, Nijerya

Enlem: 11-51N, Boylam: 013-05E, yükseklik: 354 m

METAR: eksik

Saat: 21:49 (20:49 UTC)

Tahmin

Rapor saat 11:00 UTC de 33 saat ve 49 dakika önce yapıldı.
Ayın 15'si saat 12 UTC'den ayın 16'si saat 18 UTC'ye kadar geçerli Tahmin
Rüzgar batı/güneybatıdan 8 kt
Görüş mesafesi 10 km veya daha fazla
1500 m altında bulut yok ve kümülonimbus yok
Geçici
ayın 15'si saat 17 UTC'den ayın 15'si saat 22 UTC'ye kadar
1400 ft yükseklikte parçalı bulutlu
2000 ft yükseklikte az bulutlu, Kümülonimbus.
gök gürültülü fırtına,

TAF: DNMA 151100Z 1512/1618 25008KT CAVOK TEMPO 1517/1522 TS SCT014 FEW020CB

4.000'den fazla havaalanı için hava durumu gözlemleri ve tahminleri (METAR ve TAF raporları).

Kullanılabilir istasyonlar harita üzerinde sarı ve kırmızı noktalarla gösterilir.

İstasyonun adını görmek için fareyi noktanın üzerinde gezdirin.

Sonrasında hava gözlem ve tahminlerini görmek için tıklayın.

Haritayı değiştirmek için: yaklaştırmak için siyah artı işaretli yeşil düğmeye ve uzaklaştırmak için de eksi işaretli düğmeye hızla tıklayın; bitişik haritalar için yeşil okları kullanın.


METAR-TAF: